DHK540 EGNX-LLBG
Flight info
| Callsign | DHK540 |
|---|---|
| Flight time | 4h 12m |
| Altitude | 33000 |
| Route | SAPCO UY53 DTY UM605 BENSU Q70 BIG UL9 KONAN DCT KOK DCT KOMOB DCT PITES DCT EDISA DCT KUNOD DCT GEDSO DCT VEKEN DCT MAVAR DCT BITLA/N0481F350 DCT SIGFO DCT NEVRA DCT AKINA DCT VANZA DCT PIKOG L609 ZUKKO |
| Aircraft | B77L/H-SDE1E2E3FGHIJ2J3J4J5M1RWXY/LB1D1 |
Departure
| Time | 2026-05-07 20:56 |
|---|---|
| Airport | East Midlands Airport (EGNX) |
Arrival
| Time | 2026-05-08 01:08 |
|---|---|
| Airport | Ben Gurion International Airport (LLBG) |
| Time | Latitude | Longitude | Altitude | Speed | Heading |
|---|---|---|---|---|---|
| 2026-05-07 20:29 | 52.82724 | -1.35339 | 305 ft | 0 kts | 178° |
| 2026-05-07 20:48 | 52.82727 | -1.35340 | 304 ft | 3 kts | 179° |
| 2026-05-07 20:48 | 52.82754 | -1.35339 | 303 ft | 4 kts | 184° |
| 2026-05-07 20:48 | 52.82781 | -1.35336 | 303 ft | 4 kts | 174° |
| 2026-05-07 20:48 | 52.82800 | -1.35345 | 305 ft | 3 kts | 143° |
| 2026-05-07 20:49 | 52.82814 | -1.35371 | 304 ft | 4 kts | 104° |
| 2026-05-07 20:49 | 52.82817 | -1.35413 | 302 ft | 4 kts | 88° |
| 2026-05-07 20:49 | 52.82816 | -1.35433 | 302 ft | 1 kts | 88° |
| 2026-05-07 20:49 | 52.82816 | -1.35434 | 302 ft | 0 kts | 88° |
| 2026-05-07 20:52 | 52.82817 | -1.35415 | 305 ft | 6 kts | 88° |
| 2026-05-07 20:52 | 52.82818 | -1.35342 | 308 ft | 6 kts | 86° |
| 2026-05-07 20:53 | 52.82840 | -1.35283 | 309 ft | 6 kts | 33° |
| 2026-05-07 20:53 | 52.82877 | -1.35248 | 311 ft | 6 kts | 46° |
| 2026-05-07 20:53 | 52.82892 | -1.35181 | 309 ft | 6 kts | 81° |
| 2026-05-07 20:53 | 52.82895 | -1.35108 | 308 ft | 6 kts | 88° |
| 2026-05-07 20:54 | 52.82896 | -1.35036 | 308 ft | 6 kts | 89° |
| 2026-05-07 20:54 | 52.82908 | -1.34966 | 311 ft | 6 kts | 56° |
| 2026-05-07 20:54 | 52.82948 | -1.34938 | 311 ft | 6 kts | 7° |
| 2026-05-07 20:54 | 52.82993 | -1.34938 | 309 ft | 6 kts | 358° |
| 2026-05-07 20:55 | 52.83038 | -1.34933 | 310 ft | 7 kts | 18° |
| 2026-05-07 20:55 | 52.83062 | -1.34871 | 310 ft | 7 kts | 82° |
| 2026-05-07 20:55 | 52.83065 | -1.34760 | 307 ft | 18 kts | 88° |
| 2026-05-07 20:55 | 52.83074 | -1.34228 | 308 ft | 85 kts | 88° |
| 2026-05-07 20:56 | 52.83101 | -1.32810 | 305 ft | 160 kts | 88° |
| 2026-05-07 20:56 | 52.83156 | -1.30709 | 604 ft | 191 kts | 87° |
| 2026-05-07 20:56 | 52.83089 | -1.28540 | 1305 ft | 197 kts | 102° |
| 2026-05-07 20:56 | 52.82812 | -1.26282 | 1948 ft | 207 kts | 105° |
| 2026-05-07 20:57 | 52.82478 | -1.23874 | 2337 ft | 228 kts | 108° |
| 2026-05-07 20:57 | 52.81792 | -1.21421 | 2641 ft | 242 kts | 134° |
| 2026-05-07 20:57 | 52.80564 | -1.19437 | 3244 ft | 251 kts | 137° |
| 2026-05-07 20:57 | 52.79317 | -1.17351 | 4065 ft | 257 kts | 135° |
| 2026-05-07 20:58 | 52.78021 | -1.15317 | 4869 ft | 258 kts | 149° |
| 2026-05-07 20:58 | 52.76304 | -1.14525 | 5541 ft | 261 kts | 186° |
| 2026-05-07 20:58 | 52.74649 | -1.15547 | 6363 ft | 262 kts | 218° |
| 2026-05-07 20:58 | 52.73272 | -1.17534 | 7019 ft | 266 kts | 221° |
| 2026-05-07 20:59 | 52.71858 | -1.19549 | 7794 ft | 269 kts | 220° |
| 2026-05-07 20:59 | 52.70408 | -1.21513 | 8590 ft | 272 kts | 219° |
| 2026-05-07 20:59 | 52.68929 | -1.23471 | 9033 ft | 273 kts | 219° |
| 2026-05-07 20:59 | 52.67434 | -1.25435 | 9014 ft | 275 kts | 219° |
| 2026-05-07 21:00 | 52.65941 | -1.27385 | 9021 ft | 274 kts | 219° |
| 2026-05-07 21:00 | 52.64451 | -1.29324 | 9010 ft | 273 kts | 219° |
| 2026-05-07 21:00 | 52.62959 | -1.31260 | 9024 ft | 272 kts | 219° |
| 2026-05-07 21:00 | 52.61471 | -1.33188 | 9025 ft | 272 kts | 219° |
| 2026-05-07 21:01 | 52.59965 | -1.35070 | 9014 ft | 270 kts | 212° |
| 2026-05-07 21:01 | 52.58239 | -1.36297 | 9026 ft | 271 kts | 194° |
| 2026-05-07 21:01 | 52.56358 | -1.36560 | 9026 ft | 274 kts | 177° |
| 2026-05-07 21:01 | 52.54474 | -1.36040 | 9016 ft | 276 kts | 165° |
| 2026-05-07 21:02 | 52.52669 | -1.34944 | 9222 ft | 277 kts | 159° |
| 2026-05-07 21:02 | 52.50895 | -1.33723 | 9900 ft | 283 kts | 159° |
| 2026-05-07 21:02 | 52.49061 | -1.32444 | 10463 ft | 293 kts | 159° |
| 2026-05-07 21:02 | 52.47105 | -1.31088 | 10673 ft | 317 kts | 159° |
| 2026-05-07 21:03 | 52.44995 | -1.29636 | 10881 ft | 341 kts | 159° |
| 2026-05-07 21:03 | 52.42733 | -1.28086 | 11166 ft | 360 kts | 159° |
| 2026-05-07 21:03 | 52.40385 | -1.26483 | 11822 ft | 370 kts | 159° |
| 2026-05-07 21:03 | 52.37983 | -1.24851 | 12583 ft | 375 kts | 159° |
| 2026-05-07 21:04 | 52.35564 | -1.23212 | 13448 ft | 378 kts | 159° |
| 2026-05-07 21:04 | 52.33122 | -1.21562 | 14254 ft | 381 kts | 159° |
| 2026-05-07 21:04 | 52.30689 | -1.19923 | 14963 ft | 385 kts | 159° |
| 2026-05-07 21:04 | 52.28199 | -1.18247 | 15647 ft | 390 kts | 159° |
| 2026-05-07 21:05 | 52.25642 | -1.16526 | 16344 ft | 394 kts | 159° |
| 2026-05-07 21:05 | 52.23129 | -1.14838 | 17016 ft | 398 kts | 159° |
| 2026-05-07 21:05 | 52.20552 | -1.13112 | 17696 ft | 402 kts | 159° |
| 2026-05-07 21:05 | 52.17920 | -1.11498 | 18362 ft | 406 kts | 164° |
| 2026-05-07 21:06 | 52.15178 | -1.10363 | 18962 ft | 408 kts | 170° |
| 2026-05-07 21:06 | 52.12381 | -1.09495 | 19528 ft | 411 kts | 171° |
| 2026-05-07 21:06 | 52.09560 | -1.08616 | 20133 ft | 414 kts | 171° |
| 2026-05-07 21:06 | 52.06707 | -1.07711 | 20728 ft | 418 kts | 170° |
| 2026-05-07 21:07 | 52.03845 | -1.06786 | 21301 ft | 421 kts | 170° |
| 2026-05-07 21:07 | 52.00957 | -1.05846 | 21864 ft | 425 kts | 170° |
| 2026-05-07 21:07 | 51.98048 | -1.04896 | 22425 ft | 428 kts | 170° |
| 2026-05-07 21:07 | 51.95117 | -1.03923 | 22995 ft | 432 kts | 170° |
| 2026-05-07 21:08 | 51.92157 | -1.02938 | 23531 ft | 435 kts | 170° |
| 2026-05-07 21:08 | 51.89172 | -1.01946 | 24013 ft | 438 kts | 170° |
| 2026-05-07 21:08 | 51.86212 | -1.00967 | 24472 ft | 441 kts | 170° |
| 2026-05-07 21:08 | 51.83194 | -0.99976 | 24961 ft | 444 kts | 170° |
| 2026-05-07 21:09 | 51.80155 | -0.98999 | 25431 ft | 446 kts | 171° |
| 2026-05-07 21:09 | 51.77093 | -0.98021 | 25885 ft | 449 kts | 171° |
| 2026-05-07 21:09 | 51.74011 | -0.97039 | 26330 ft | 452 kts | 171° |
| 2026-05-07 21:09 | 51.70913 | -0.96050 | 26764 ft | 455 kts | 171° |
| 2026-05-07 21:10 | 51.67794 | -0.95053 | 27199 ft | 458 kts | 171° |
| 2026-05-07 21:10 | 51.64663 | -0.94054 | 27630 ft | 461 kts | 171° |
| 2026-05-07 21:10 | 51.61557 | -0.92745 | 27918 ft | 465 kts | 159° |
| 2026-05-07 21:10 | 51.58765 | -0.90040 | 28155 ft | 476 kts | 141° |
| 2026-05-07 21:11 | 51.56544 | -0.86165 | 28574 ft | 482 kts | 127° |
| 2026-05-07 21:11 | 51.54970 | -0.81382 | 28980 ft | 485 kts | 114° |
| 2026-05-07 21:11 | 51.52474 | -0.71182 | 29512 ft | 495 kts | 113° |
| 2026-05-07 21:12 | 51.51210 | -0.66021 | 29874 ft | 496 kts | 114° |
| 2026-05-07 21:12 | 51.49928 | -0.60882 | 30289 ft | 496 kts | 114° |
| 2026-05-07 21:12 | 51.48624 | -0.55756 | 30720 ft | 494 kts | 114° |
| 2026-05-07 21:12 | 51.47314 | -0.50671 | 31136 ft | 493 kts | 115° |
| 2026-05-07 21:13 | 51.46012 | -0.45657 | 31513 ft | 492 kts | 115° |
| 2026-05-07 21:13 | 51.44689 | -0.40583 | 31869 ft | 492 kts | 115° |
| 2026-05-07 21:13 | 51.43364 | -0.35513 | 32230 ft | 491 kts | 115° |
| 2026-05-07 21:13 | 51.42045 | -0.30470 | 32596 ft | 491 kts | 115° |
| 2026-05-07 21:14 | 51.41171 | -0.27130 | 32843 ft | 490 kts | 115° |
| 2026-05-07 21:14 | 51.39410 | -0.20413 | 33055 ft | 495 kts | 115° |
| 2026-05-07 21:14 | 51.37173 | -0.11906 | 33096 ft | 494 kts | 115° |
| 2026-05-07 21:15 | 51.34509 | -0.01813 | 33096 ft | 489 kts | 115° |
| 2026-05-07 21:15 | 51.32380 | 0.08474 | 33100 ft | 492 kts | 103° |
| 2026-05-07 21:16 | 51.31124 | 0.19225 | 33105 ft | 492 kts | 102° |
| 2026-05-07 21:16 | 51.29824 | 0.29982 | 32907 ft | 493 kts | 103° |
| 2026-05-07 21:17 | 51.28494 | 0.40758 | 32870 ft | 494 kts | 102° |
| 2026-05-07 21:17 | 51.27231 | 0.51208 | 32873 ft | 495 kts | 102° |
| 2026-05-07 21:18 | 51.25888 | 0.62037 | 32906 ft | 496 kts | 103° |
| 2026-05-07 21:18 | 51.24450 | 0.72826 | 32955 ft | 496 kts | 103° |
| 2026-05-07 21:19 | 51.23089 | 0.83568 | 33004 ft | 497 kts | 103° |
| 2026-05-07 21:19 | 51.21735 | 0.94382 | 33089 ft | 497 kts | 103° |
| 2026-05-07 21:20 | 51.20351 | 1.05193 | 33094 ft | 497 kts | 103° |
| 2026-05-07 21:20 | 51.18933 | 1.15994 | 33092 ft | 497 kts | 103° |
| 2026-05-07 21:21 | 51.17509 | 1.26786 | 33084 ft | 497 kts | 103° |
| 2026-05-07 21:21 | 51.16186 | 1.37531 | 33098 ft | 498 kts | 98° |
| 2026-05-07 21:22 | 51.15619 | 1.48545 | 33103 ft | 498 kts | 95° |
| 2026-05-07 21:22 | 51.15143 | 1.59557 | 33100 ft | 498 kts | 95° |
| 2026-05-07 21:23 | 51.14616 | 1.70568 | 33086 ft | 498 kts | 96° |
| 2026-05-07 21:23 | 51.14055 | 1.81587 | 33088 ft | 498 kts | 96° |
| 2026-05-07 21:24 | 51.13490 | 1.92535 | 33103 ft | 499 kts | 96° |
| 2026-05-07 21:24 | 51.12910 | 2.03613 | 33098 ft | 499 kts | 96° |
| 2026-05-07 21:25 | 51.12326 | 2.14555 | 33088 ft | 499 kts | 96° |
| 2026-05-07 21:25 | 51.11730 | 2.25574 | 33098 ft | 499 kts | 96° |
| 2026-05-07 21:26 | 51.11123 | 2.36593 | 33079 ft | 499 kts | 96° |
| 2026-05-07 21:26 | 51.10507 | 2.47620 | 33098 ft | 499 kts | 96° |
| 2026-05-07 21:27 | 51.09837 | 2.58545 | 33094 ft | 499 kts | 100° |
| 2026-05-07 21:27 | 51.08033 | 2.69170 | 33101 ft | 496 kts | 112° |
| 2026-05-07 21:28 | 51.05022 | 2.79018 | 33104 ft | 494 kts | 120° |
| 2026-05-07 21:28 | 51.01747 | 2.88612 | 33094 ft | 495 kts | 120° |
| 2026-05-07 21:29 | 50.98498 | 2.98175 | 33090 ft | 495 kts | 120° |
| 2026-05-07 21:29 | 50.95248 | 3.07818 | 33087 ft | 495 kts | 120° |
| 2026-05-07 21:30 | 50.92004 | 3.17448 | 33082 ft | 495 kts | 120° |
| 2026-05-07 21:30 | 50.88753 | 3.27062 | 33072 ft | 495 kts | 120° |
| 2026-05-07 21:31 | 50.85488 | 3.36678 | 33072 ft | 495 kts | 120° |
| 2026-05-07 21:31 | 50.82213 | 3.46279 | 33078 ft | 495 kts | 120° |
| 2026-05-07 21:32 | 50.78958 | 3.55788 | 33081 ft | 494 kts | 120° |
| 2026-05-07 21:32 | 50.75677 | 3.65334 | 33082 ft | 494 kts | 120° |
| 2026-05-07 21:33 | 50.72389 | 3.74869 | 33078 ft | 494 kts | 120° |
| 2026-05-07 21:33 | 50.69095 | 3.84381 | 33081 ft | 494 kts | 120° |
| 2026-05-07 21:34 | 50.65813 | 3.93827 | 33079 ft | 493 kts | 120° |
| 2026-05-07 21:34 | 50.62505 | 4.03308 | 33082 ft | 493 kts | 120° |
| 2026-05-07 21:35 | 50.59193 | 4.12767 | 33093 ft | 494 kts | 120° |
| 2026-05-07 21:35 | 50.55871 | 4.22222 | 33096 ft | 493 kts | 121° |
| 2026-05-07 21:36 | 50.52540 | 4.31665 | 33096 ft | 493 kts | 121° |
| 2026-05-07 21:36 | 50.49225 | 4.41031 | 33104 ft | 493 kts | 121° |
| 2026-05-07 21:37 | 50.45880 | 4.50442 | 33104 ft | 494 kts | 121° |
| 2026-05-07 21:37 | 50.42519 | 4.59865 | 33102 ft | 494 kts | 121° |
| 2026-05-07 21:38 | 50.39152 | 4.69273 | 33092 ft | 494 kts | 121° |
| 2026-05-07 21:38 | 50.35782 | 4.78655 | 33086 ft | 494 kts | 121° |
| 2026-05-07 21:39 | 50.32423 | 4.87971 | 33079 ft | 494 kts | 121° |
| 2026-05-07 21:39 | 50.29038 | 4.97324 | 33072 ft | 494 kts | 121° |
| 2026-05-07 21:40 | 50.25646 | 5.06663 | 33073 ft | 494 kts | 121° |
| 2026-05-07 21:40 | 50.22245 | 5.15994 | 33075 ft | 493 kts | 121° |
| 2026-05-07 21:41 | 50.18861 | 5.25246 | 33078 ft | 493 kts | 121° |
| 2026-05-07 21:41 | 50.15447 | 5.34553 | 33080 ft | 493 kts | 121° |
| 2026-05-07 21:42 | 50.12063 | 5.43861 | 33073 ft | 494 kts | 121° |
| 2026-05-07 21:42 | 50.08742 | 5.53226 | 33082 ft | 494 kts | 120° |
| 2026-05-07 21:43 | 50.05419 | 5.62583 | 33076 ft | 494 kts | 121° |
| 2026-05-07 21:43 | 50.02076 | 5.71921 | 33073 ft | 494 kts | 121° |
| 2026-05-07 21:44 | 49.98737 | 5.81198 | 33080 ft | 494 kts | 121° |
| 2026-05-07 21:44 | 49.95367 | 5.90527 | 33072 ft | 494 kts | 121° |
| 2026-05-07 21:45 | 49.91987 | 5.99849 | 33071 ft | 494 kts | 121° |
| 2026-05-07 21:45 | 49.88620 | 6.09107 | 33076 ft | 495 kts | 121° |
| 2026-05-07 21:46 | 49.85227 | 6.18403 | 33070 ft | 495 kts | 121° |
| 2026-05-07 21:46 | 49.81830 | 6.27672 | 33066 ft | 495 kts | 121° |
| 2026-05-07 21:47 | 49.78446 | 6.36877 | 33084 ft | 495 kts | 121° |
| 2026-05-07 21:47 | 49.75034 | 6.46132 | 33085 ft | 495 kts | 121° |
| 2026-05-07 21:48 | 49.71585 | 6.55367 | 33087 ft | 495 kts | 123° |
| 2026-05-07 21:48 | 49.67969 | 6.64405 | 33078 ft | 494 kts | 124° |
| 2026-05-07 21:49 | 49.64323 | 6.73343 | 33064 ft | 495 kts | 124° |
| 2026-05-07 21:49 | 49.60672 | 6.82334 | 33084 ft | 495 kts | 123° |
| 2026-05-07 21:50 | 49.57030 | 6.91334 | 33081 ft | 495 kts | 123° |
| 2026-05-07 21:50 | 49.53382 | 7.00329 | 33076 ft | 495 kts | 124° |
| 2026-05-07 21:51 | 49.49725 | 7.09314 | 33070 ft | 495 kts | 124° |
| 2026-05-07 21:51 | 49.46062 | 7.18281 | 33076 ft | 495 kts | 124° |
| 2026-05-07 21:52 | 49.42390 | 7.27237 | 33077 ft | 495 kts | 124° |
| 2026-05-07 21:52 | 49.38712 | 7.36177 | 33075 ft | 495 kts | 124° |
| 2026-05-07 21:53 | 49.35046 | 7.45060 | 33074 ft | 496 kts | 124° |
| 2026-05-07 21:53 | 49.31343 | 7.54002 | 33074 ft | 496 kts | 124° |
| 2026-05-07 21:54 | 49.27627 | 7.62943 | 33077 ft | 497 kts | 124° |
| 2026-05-07 21:54 | 49.23931 | 7.71811 | 33076 ft | 497 kts | 124° |
| 2026-05-07 21:55 | 49.20202 | 7.80724 | 33074 ft | 497 kts | 124° |
| 2026-05-07 21:55 | 49.16465 | 7.89629 | 33074 ft | 497 kts | 124° |
| 2026-05-07 21:56 | 49.12719 | 7.98526 | 33074 ft | 497 kts | 124° |
| 2026-05-07 21:56 | 49.08992 | 8.07348 | 33075 ft | 498 kts | 124° |
| 2026-05-07 21:57 | 49.05232 | 8.16220 | 33076 ft | 498 kts | 124° |
| 2026-05-07 21:57 | 49.01460 | 8.25095 | 33077 ft | 499 kts | 125° |
| 2026-05-07 21:58 | 48.97608 | 8.33885 | 33075 ft | 498 kts | 128° |
| 2026-05-07 21:58 | 48.93486 | 8.42365 | 33083 ft | 499 kts | 129° |
| 2026-05-07 21:59 | 48.89308 | 8.50827 | 33077 ft | 500 kts | 129° |
| 2026-05-07 21:59 | 48.85164 | 8.59250 | 33077 ft | 500 kts | 129° |
| 2026-05-07 22:00 | 48.80995 | 8.67740 | 33075 ft | 501 kts | 129° |
| 2026-05-07 22:00 | 48.76825 | 8.76215 | 33080 ft | 501 kts | 129° |
| 2026-05-07 22:01 | 48.72668 | 8.84637 | 33083 ft | 502 kts | 129° |
| 2026-05-07 22:01 | 48.69156 | 8.91726 | 33068 ft | 502 kts | 129° |
| 2026-05-07 22:02 | 48.64956 | 9.00181 | 33076 ft | 502 kts | 129° |
| 2026-05-07 22:02 | 48.60777 | 9.08566 | 33085 ft | 503 kts | 129° |
| 2026-05-07 22:03 | 48.56553 | 9.17016 | 33073 ft | 503 kts | 129° |
| 2026-05-07 22:03 | 48.52330 | 9.25440 | 33081 ft | 503 kts | 129° |
| 2026-05-07 22:04 | 48.48102 | 9.33845 | 33077 ft | 503 kts | 129° |
| 2026-05-07 22:04 | 48.43866 | 9.42241 | 33084 ft | 503 kts | 130° |
| 2026-05-07 22:05 | 48.39615 | 9.50641 | 33075 ft | 503 kts | 130° |
| 2026-05-07 22:05 | 48.35393 | 9.58962 | 33079 ft | 503 kts | 130° |
| 2026-05-07 22:06 | 48.31092 | 9.67267 | 33073 ft | 503 kts | 131° |
| 2026-05-07 22:06 | 48.28312 | 9.72425 | 33081 ft | 503 kts | 132° |
| 2026-05-07 22:07 | 48.23887 | 9.80550 | 33072 ft | 503 kts | 132° |
| 2026-05-07 22:07 | 48.19458 | 9.88697 | 33080 ft | 503 kts | 132° |
| 2026-05-07 22:08 | 48.15054 | 9.96814 | 33076 ft | 504 kts | 132° |
| 2026-05-07 22:08 | 48.10632 | 10.04953 | 33078 ft | 504 kts | 132° |
| 2026-05-07 22:09 | 48.06201 | 10.13082 | 33073 ft | 504 kts | 132° |
| 2026-05-07 22:09 | 48.01786 | 10.21154 | 33081 ft | 504 kts | 132° |
| 2026-05-07 22:10 | 47.97338 | 10.29262 | 33073 ft | 504 kts | 132° |
| 2026-05-07 22:10 | 47.92880 | 10.37362 | 33078 ft | 504 kts | 133° |
| 2026-05-07 22:11 | 47.88448 | 10.45393 | 33076 ft | 505 kts | 133° |
| 2026-05-07 22:11 | 47.83975 | 10.53474 | 33076 ft | 505 kts | 133° |
| 2026-05-07 22:12 | 47.79503 | 10.61528 | 33075 ft | 505 kts | 133° |
| 2026-05-07 22:12 | 47.75023 | 10.69573 | 33080 ft | 505 kts | 133° |
| 2026-05-07 22:13 | 47.70536 | 10.77605 | 33068 ft | 505 kts | 133° |
| 2026-05-07 22:13 | 47.66066 | 10.85586 | 33081 ft | 505 kts | 133° |
| 2026-05-07 22:14 | 47.61561 | 10.93604 | 33070 ft | 505 kts | 133° |
| 2026-05-07 22:14 | 47.57074 | 11.01568 | 33080 ft | 505 kts | 134° |
| 2026-05-07 22:15 | 47.52563 | 11.09548 | 33084 ft | 505 kts | 134° |
| 2026-05-07 22:15 | 47.48039 | 11.17529 | 33089 ft | 506 kts | 134° |
| 2026-05-07 22:16 | 47.43511 | 11.25496 | 33095 ft | 506 kts | 134° |
| 2026-05-07 22:16 | 47.39005 | 11.33399 | 33099 ft | 506 kts | 134° |
| 2026-05-07 22:17 | 47.34464 | 11.41338 | 33092 ft | 506 kts | 134° |
| 2026-05-07 22:17 | 47.29919 | 11.49264 | 33102 ft | 506 kts | 134° |
| 2026-05-07 22:18 | 47.23081 | 11.61144 | 33094 ft | 506 kts | 135° |
| 2026-05-07 22:19 | 47.18546 | 11.68997 | 33083 ft | 506 kts | 135° |
| 2026-05-07 22:19 | 47.13994 | 11.76858 | 33087 ft | 505 kts | 135° |
| 2026-05-07 22:20 | 47.09489 | 11.84770 | 33079 ft | 507 kts | 131° |
| 2026-05-07 22:20 | 47.05754 | 11.93625 | 33103 ft | 513 kts | 120° |
| 2026-05-07 22:21 | 47.02655 | 12.03059 | 33095 ft | 514 kts | 120° |
| 2026-05-07 22:21 | 46.99550 | 12.12500 | 33105 ft | 513 kts | 120° |
| 2026-05-07 22:22 | 46.96423 | 12.21839 | 33113 ft | 513 kts | 121° |
| 2026-05-07 22:22 | 46.93254 | 12.31214 | 33080 ft | 514 kts | 121° |
| 2026-05-07 22:23 | 46.90083 | 12.40556 | 33100 ft | 513 kts | 121° |
| 2026-05-07 22:23 | 46.86903 | 12.49893 | 33098 ft | 512 kts | 121° |
| 2026-05-07 22:24 | 46.83721 | 12.59212 | 33089 ft | 512 kts | 121° |
| 2026-05-07 22:24 | 46.80540 | 12.68495 | 33087 ft | 514 kts | 121° |
| 2026-05-07 22:25 | 46.77331 | 12.77823 | 33061 ft | 514 kts | 121° |
| 2026-05-07 22:25 | 46.74119 | 12.87133 | 33074 ft | 514 kts | 121° |
| 2026-05-07 22:26 | 46.70893 | 12.96445 | 33088 ft | 514 kts | 121° |
| 2026-05-07 22:26 | 46.67653 | 13.05767 | 33081 ft | 516 kts | 122° |
| 2026-05-07 22:27 | 46.64420 | 13.15039 | 33078 ft | 516 kts | 122° |
| 2026-05-07 22:27 | 46.61163 | 13.24349 | 33079 ft | 514 kts | 122° |
| 2026-05-07 22:28 | 46.57919 | 13.33551 | 33078 ft | 512 kts | 124° |
| 2026-05-07 22:28 | 46.54011 | 13.42080 | 33080 ft | 502 kts | 136° |
| 2026-05-07 22:29 | 46.49406 | 13.49673 | 33081 ft | 500 kts | 137° |
| 2026-05-07 22:29 | 46.44772 | 13.57237 | 33080 ft | 502 kts | 137° |
| 2026-05-07 22:30 | 46.40178 | 13.64784 | 33070 ft | 503 kts | 137° |
| 2026-05-07 22:30 | 46.35554 | 13.72405 | 33089 ft | 503 kts | 137° |
| 2026-05-07 22:31 | 46.30922 | 13.80029 | 33075 ft | 503 kts | 137° |
| 2026-05-07 22:31 | 46.26299 | 13.87616 | 33072 ft | 502 kts | 137° |
| 2026-05-07 22:32 | 46.21682 | 13.95171 | 33084 ft | 501 kts | 137° |
| 2026-05-07 22:32 | 46.17070 | 14.02693 | 33078 ft | 500 kts | 137° |
| 2026-05-07 22:33 | 46.12485 | 14.10149 | 33081 ft | 500 kts | 137° |
| 2026-05-07 22:33 | 46.07833 | 14.17692 | 33071 ft | 500 kts | 137° |
| 2026-05-07 22:34 | 46.03239 | 14.25125 | 33079 ft | 500 kts | 137° |
| 2026-05-07 22:34 | 45.98603 | 14.32604 | 33075 ft | 500 kts | 137° |
| 2026-05-07 22:35 | 45.93967 | 14.40063 | 33086 ft | 499 kts | 137° |
| 2026-05-07 22:35 | 45.89358 | 14.47459 | 33092 ft | 499 kts | 137° |
| 2026-05-07 22:36 | 45.84726 | 14.54873 | 33086 ft | 498 kts | 137° |
| 2026-05-07 22:36 | 45.80094 | 14.62262 | 33086 ft | 497 kts | 137° |
| 2026-05-07 22:37 | 45.75465 | 14.69630 | 33082 ft | 496 kts | 137° |
| 2026-05-07 22:37 | 45.70871 | 14.76922 | 33087 ft | 495 kts | 137° |
| 2026-05-07 22:38 | 45.66224 | 14.84278 | 33087 ft | 495 kts | 137° |
| 2026-05-07 22:38 | 45.61634 | 14.91527 | 33086 ft | 494 kts | 137° |
| 2026-05-07 22:39 | 45.57016 | 14.98801 | 33083 ft | 494 kts | 137° |
| 2026-05-07 22:39 | 45.52395 | 15.06057 | 33075 ft | 494 kts | 138° |
| 2026-05-07 22:40 | 45.47760 | 15.13317 | 33097 ft | 494 kts | 138° |
| 2026-05-07 22:40 | 45.43160 | 15.20502 | 33092 ft | 494 kts | 138° |
| 2026-05-07 22:41 | 45.38524 | 15.27727 | 33078 ft | 494 kts | 138° |
| 2026-05-07 22:41 | 45.33884 | 15.34940 | 33079 ft | 493 kts | 138° |
| 2026-05-07 22:42 | 45.29241 | 15.42136 | 33086 ft | 493 kts | 138° |
| 2026-05-07 22:42 | 45.24626 | 15.49271 | 33085 ft | 494 kts | 138° |
| 2026-05-07 22:43 | 45.19969 | 15.56453 | 33091 ft | 494 kts | 138° |
| 2026-05-07 22:43 | 45.15308 | 15.63622 | 33085 ft | 494 kts | 139° |
| 2026-05-07 22:44 | 45.10641 | 15.70781 | 33084 ft | 494 kts | 139° |
| 2026-05-07 22:44 | 45.05986 | 15.77903 | 33080 ft | 494 kts | 139° |
| 2026-05-07 22:45 | 45.01315 | 15.85034 | 33086 ft | 494 kts | 139° |
| 2026-05-07 22:45 | 44.96632 | 15.92163 | 33091 ft | 495 kts | 139° |
| 2026-05-07 22:46 | 44.91935 | 15.99294 | 33080 ft | 495 kts | 139° |
| 2026-05-07 22:46 | 44.87261 | 16.06373 | 33074 ft | 496 kts | 139° |
| 2026-05-07 22:47 | 44.82558 | 16.13475 | 33092 ft | 495 kts | 139° |
| 2026-05-07 22:47 | 44.77849 | 16.20572 | 33089 ft | 496 kts | 139° |
| 2026-05-07 22:48 | 44.73925 | 16.26471 | 33090 ft | 496 kts | 139° |
| 2026-05-07 22:48 | 44.69210 | 16.33543 | 33087 ft | 496 kts | 139° |
| 2026-05-07 22:49 | 44.64488 | 16.40606 | 33080 ft | 494 kts | 139° |
| 2026-05-07 22:49 | 44.59781 | 16.47631 | 33081 ft | 494 kts | 139° |
| 2026-05-07 22:50 | 44.55091 | 16.54609 | 33102 ft | 494 kts | 139° |
| 2026-05-07 22:50 | 44.50376 | 16.61608 | 33081 ft | 493 kts | 139° |
| 2026-05-07 22:51 | 44.45662 | 16.68588 | 33098 ft | 492 kts | 139° |
| 2026-05-07 22:51 | 44.40955 | 16.75541 | 33110 ft | 491 kts | 139° |
| 2026-05-07 22:52 | 44.36249 | 16.82472 | 33109 ft | 491 kts | 140° |
| 2026-05-07 22:52 | 44.31539 | 16.89395 | 33110 ft | 492 kts | 140° |
| 2026-05-07 22:53 | 44.26842 | 16.96280 | 33109 ft | 493 kts | 140° |
| 2026-05-07 22:53 | 44.22102 | 17.03213 | 33116 ft | 493 kts | 140° |
| 2026-05-07 22:54 | 44.17357 | 17.10134 | 33118 ft | 494 kts | 140° |
| 2026-05-07 22:54 | 44.12598 | 17.17059 | 33116 ft | 494 kts | 140° |
| 2026-05-07 22:55 | 44.07831 | 17.23980 | 33105 ft | 494 kts | 140° |
| 2026-05-07 22:55 | 44.03095 | 17.30834 | 33123 ft | 494 kts | 140° |
| 2026-05-07 22:56 | 43.98326 | 17.37724 | 33119 ft | 494 kts | 140° |
| 2026-05-07 22:56 | 43.93563 | 17.44590 | 33117 ft | 494 kts | 140° |
| 2026-05-07 22:57 | 43.88791 | 17.51445 | 33116 ft | 494 kts | 140° |
| 2026-05-07 22:57 | 43.84039 | 17.58255 | 33118 ft | 494 kts | 140° |
| 2026-05-07 22:58 | 43.79249 | 17.65107 | 33111 ft | 495 kts | 140° |
| 2026-05-07 22:58 | 43.74448 | 17.71957 | 33105 ft | 496 kts | 139° |
| 2026-05-07 22:59 | 43.69637 | 17.78806 | 33126 ft | 497 kts | 139° |
| 2026-05-07 22:59 | 43.64812 | 17.85656 | 33097 ft | 497 kts | 139° |
| 2026-05-07 23:00 | 43.60023 | 17.92436 | 33125 ft | 496 kts | 139° |
| 2026-05-07 23:00 | 43.55195 | 17.99258 | 33116 ft | 497 kts | 139° |
| 2026-05-07 23:01 | 43.50347 | 18.06095 | 33118 ft | 498 kts | 139° |
| 2026-05-07 23:01 | 43.45498 | 18.12912 | 33119 ft | 499 kts | 140° |
| 2026-05-07 23:02 | 43.40626 | 18.19740 | 33124 ft | 500 kts | 140° |
| 2026-05-07 23:02 | 43.35776 | 18.26525 | 33119 ft | 501 kts | 140° |
| 2026-05-07 23:03 | 43.30879 | 18.33360 | 33145 ft | 502 kts | 140° |
| 2026-05-07 23:03 | 43.25980 | 18.40182 | 33137 ft | 502 kts | 140° |
| 2026-05-07 23:04 | 43.21059 | 18.47014 | 33141 ft | 503 kts | 140° |
| 2026-05-07 23:04 | 43.16140 | 18.53832 | 33144 ft | 503 kts | 140° |
| 2026-05-07 23:05 | 43.11219 | 18.60634 | 33143 ft | 502 kts | 140° |
| 2026-05-07 23:05 | 43.06323 | 18.67385 | 33141 ft | 502 kts | 140° |
| 2026-05-07 23:06 | 43.01393 | 18.74166 | 33129 ft | 501 kts | 140° |
| 2026-05-07 23:06 | 42.98923 | 18.77556 | 33307 ft | 504 kts | 140° |
| 2026-05-07 23:06 | 42.96446 | 18.80953 | 33709 ft | 503 kts | 140° |
| 2026-05-07 23:06 | 42.93985 | 18.84325 | 34175 ft | 500 kts | 140° |
| 2026-05-07 23:07 | 42.91562 | 18.87642 | 34539 ft | 498 kts | 140° |
| 2026-05-07 23:07 | 42.89116 | 18.90985 | 34840 ft | 498 kts | 140° |
| 2026-05-07 23:07 | 42.86669 | 18.94323 | 35034 ft | 499 kts | 140° |
| 2026-05-07 23:08 | 42.81721 | 19.01059 | 35126 ft | 501 kts | 140° |
| 2026-05-07 23:08 | 42.76822 | 19.07719 | 35116 ft | 499 kts | 140° |
| 2026-05-07 23:09 | 42.71924 | 19.14364 | 35112 ft | 496 kts | 140° |
| 2026-05-07 23:09 | 42.67037 | 19.20975 | 35102 ft | 495 kts | 140° |
| 2026-05-07 23:10 | 42.62154 | 19.27562 | 35108 ft | 495 kts | 140° |
| 2026-05-07 23:10 | 42.57259 | 19.34151 | 35086 ft | 496 kts | 140° |
| 2026-05-07 23:11 | 42.52348 | 19.40745 | 35095 ft | 498 kts | 140° |
| 2026-05-07 23:11 | 42.47411 | 19.47361 | 35090 ft | 500 kts | 140° |
| 2026-05-07 23:12 | 42.42448 | 19.53996 | 35084 ft | 502 kts | 140° |
| 2026-05-07 23:12 | 42.37461 | 19.60648 | 35087 ft | 503 kts | 140° |
| 2026-05-07 23:13 | 42.32502 | 19.67248 | 35095 ft | 504 kts | 140° |
| 2026-05-07 23:13 | 42.27502 | 19.73883 | 35108 ft | 504 kts | 140° |
| 2026-05-07 23:14 | 42.22487 | 19.80526 | 35094 ft | 505 kts | 140° |
| 2026-05-07 23:14 | 42.17461 | 19.87165 | 35095 ft | 507 kts | 140° |
| 2026-05-07 23:15 | 42.12420 | 19.93813 | 35092 ft | 507 kts | 140° |
| 2026-05-07 23:15 | 42.07365 | 20.00461 | 35090 ft | 508 kts | 140° |
| 2026-05-07 23:16 | 42.02303 | 20.07101 | 35114 ft | 508 kts | 140° |
| 2026-05-07 23:16 | 41.97230 | 20.13743 | 35102 ft | 509 kts | 140° |
| 2026-05-07 23:17 | 41.92181 | 20.20336 | 35103 ft | 509 kts | 140° |
| 2026-05-07 23:17 | 41.87093 | 20.26964 | 35092 ft | 510 kts | 140° |
| 2026-05-07 23:18 | 41.81996 | 20.33590 | 35095 ft | 510 kts | 140° |
| 2026-05-07 23:18 | 41.76891 | 20.40212 | 35108 ft | 510 kts | 140° |
| 2026-05-07 23:19 | 41.71803 | 20.46798 | 35116 ft | 511 kts | 140° |
| 2026-05-07 23:19 | 41.66662 | 20.53370 | 35115 ft | 510 kts | 142° |
| 2026-05-07 23:20 | 41.61162 | 20.59298 | 35116 ft | 507 kts | 146° |
| 2026-05-07 23:20 | 41.55599 | 20.65083 | 35127 ft | 506 kts | 146° |
| 2026-05-07 23:21 | 41.50049 | 20.70883 | 35128 ft | 507 kts | 146° |
| 2026-05-07 23:21 | 41.44491 | 20.76721 | 35117 ft | 508 kts | 146° |
| 2026-05-07 23:22 | 41.38933 | 20.82557 | 35124 ft | 508 kts | 146° |
| 2026-05-07 23:22 | 41.33400 | 20.88349 | 35132 ft | 510 kts | 146° |
| 2026-05-07 23:23 | 41.27811 | 20.94185 | 35126 ft | 511 kts | 146° |
| 2026-05-07 23:23 | 41.22208 | 21.00020 | 35128 ft | 511 kts | 146° |
| 2026-05-07 23:24 | 41.16600 | 21.05853 | 35121 ft | 512 kts | 146° |
| 2026-05-07 23:24 | 41.10982 | 21.11681 | 35122 ft | 512 kts | 146° |
| 2026-05-07 23:25 | 41.05397 | 21.17461 | 35131 ft | 511 kts | 146° |
| 2026-05-07 23:25 | 40.99767 | 21.23275 | 35076 ft | 516 kts | 150° |
| 2026-05-07 23:26 | 40.94049 | 21.29159 | 35128 ft | 525 kts | 150° |
| 2026-05-07 23:26 | 40.88254 | 21.35135 | 35128 ft | 529 kts | 149° |
| 2026-05-07 23:27 | 40.80019 | 21.45022 | 35141 ft | 535 kts | 144° |
| 2026-05-07 23:27 | 40.74638 | 21.51720 | 35137 ft | 535 kts | 144° |
| 2026-05-07 23:28 | 40.69204 | 21.58423 | 35140 ft | 535 kts | 144° |
| 2026-05-07 23:28 | 40.63754 | 21.65095 | 35136 ft | 534 kts | 144° |
| 2026-05-07 23:29 | 40.58296 | 21.71753 | 35131 ft | 534 kts | 144° |
| 2026-05-07 23:29 | 40.52831 | 21.78408 | 35141 ft | 534 kts | 144° |
| 2026-05-07 23:30 | 40.47369 | 21.85044 | 35132 ft | 535 kts | 144° |
| 2026-05-07 23:30 | 40.41933 | 21.91636 | 35129 ft | 535 kts | 144° |
| 2026-05-07 23:31 | 40.36455 | 21.98263 | 35128 ft | 536 kts | 144° |
| 2026-05-07 23:31 | 40.30961 | 22.04891 | 35125 ft | 536 kts | 144° |
| 2026-05-07 23:32 | 40.25468 | 22.11507 | 35143 ft | 537 kts | 144° |
| 2026-05-07 23:32 | 40.19991 | 22.18086 | 35120 ft | 538 kts | 144° |
| 2026-05-07 23:33 | 40.14462 | 22.24712 | 35126 ft | 539 kts | 144° |
| 2026-05-07 23:33 | 40.08932 | 22.31329 | 35113 ft | 539 kts | 144° |
| 2026-05-07 23:34 | 40.03382 | 22.37948 | 35112 ft | 540 kts | 144° |
| 2026-05-07 23:34 | 39.97823 | 22.44563 | 35103 ft | 540 kts | 144° |
| 2026-05-07 23:35 | 39.92293 | 22.51132 | 35099 ft | 541 kts | 144° |
| 2026-05-07 23:35 | 39.86726 | 22.57731 | 35110 ft | 541 kts | 144° |
| 2026-05-07 23:36 | 39.82057 | 22.63249 | 35105 ft | 541 kts | 144° |
| 2026-05-07 23:36 | 39.75589 | 22.70878 | 35087 ft | 542 kts | 144° |
| 2026-05-07 23:37 | 39.70913 | 22.76382 | 35097 ft | 541 kts | 144° |
| 2026-05-07 23:37 | 39.65327 | 22.82945 | 35103 ft | 541 kts | 144° |
| 2026-05-07 23:38 | 39.59784 | 22.89440 | 35085 ft | 540 kts | 144° |
| 2026-05-07 23:38 | 39.54214 | 22.95955 | 35100 ft | 539 kts | 144° |
| 2026-05-07 23:39 | 39.48634 | 23.02462 | 35099 ft | 540 kts | 144° |
| 2026-05-07 23:39 | 39.43040 | 23.08970 | 35088 ft | 541 kts | 144° |
| 2026-05-07 23:40 | 39.37442 | 23.15472 | 35101 ft | 542 kts | 144° |
| 2026-05-07 23:40 | 39.31815 | 23.21991 | 35103 ft | 544 kts | 144° |
| 2026-05-07 23:41 | 39.26162 | 23.28527 | 35093 ft | 547 kts | 144° |
| 2026-05-07 23:41 | 39.20526 | 23.35029 | 35098 ft | 548 kts | 144° |
| 2026-05-07 23:42 | 39.14830 | 23.41586 | 35102 ft | 549 kts | 144° |
| 2026-05-07 23:42 | 39.09129 | 23.48133 | 35091 ft | 549 kts | 144° |
| 2026-05-07 23:43 | 39.03462 | 23.54628 | 35094 ft | 548 kts | 144° |
| 2026-05-07 23:43 | 38.97754 | 23.61156 | 35094 ft | 548 kts | 144° |
| 2026-05-07 23:44 | 38.92061 | 23.67685 | 35090 ft | 547 kts | 143° |
| 2026-05-07 23:44 | 38.86465 | 23.74328 | 35098 ft | 548 kts | 142° |
| 2026-05-07 23:45 | 38.80925 | 23.80958 | 35103 ft | 547 kts | 142° |
| 2026-05-07 23:45 | 38.75345 | 23.87588 | 35099 ft | 547 kts | 142° |
| 2026-05-07 23:46 | 38.69739 | 23.94206 | 35101 ft | 547 kts | 142° |
| 2026-05-07 23:46 | 38.64137 | 24.00800 | 35117 ft | 547 kts | 142° |
| 2026-05-07 23:47 | 38.58537 | 24.07387 | 35101 ft | 544 kts | 142° |
| 2026-05-07 23:47 | 38.52987 | 24.13894 | 35112 ft | 546 kts | 142° |
| 2026-05-07 23:48 | 38.47367 | 24.20467 | 35065 ft | 548 kts | 142° |
| 2026-05-07 23:48 | 38.41749 | 24.27029 | 35111 ft | 549 kts | 142° |
| 2026-05-07 23:49 | 38.36103 | 24.33610 | 35109 ft | 551 kts | 142° |
| 2026-05-07 23:49 | 38.30430 | 24.40207 | 35111 ft | 552 kts | 142° |
| 2026-05-07 23:50 | 38.24745 | 24.46803 | 35113 ft | 553 kts | 142° |
| 2026-05-07 23:50 | 38.19046 | 24.53402 | 35109 ft | 554 kts | 142° |
| 2026-05-07 23:51 | 38.13623 | 24.60402 | 35086 ft | 558 kts | 134° |
| 2026-05-07 23:51 | 38.08585 | 24.67817 | 35119 ft | 558 kts | 133° |
| 2026-05-07 23:52 | 38.03522 | 24.75289 | 35117 ft | 558 kts | 134° |
| 2026-05-07 23:52 | 37.98426 | 24.82713 | 35117 ft | 558 kts | 134° |
| 2026-05-07 23:53 | 37.93308 | 24.90105 | 35119 ft | 558 kts | 134° |
| 2026-05-07 23:53 | 37.88189 | 24.97480 | 35118 ft | 557 kts | 134° |
| 2026-05-07 23:54 | 37.83055 | 25.04865 | 35122 ft | 557 kts | 134° |
| 2026-05-07 23:54 | 37.77959 | 25.12184 | 35121 ft | 558 kts | 134° |
| 2026-05-07 23:55 | 37.72823 | 25.19542 | 35123 ft | 558 kts | 134° |
| 2026-05-07 23:55 | 37.67689 | 25.26882 | 35129 ft | 558 kts | 134° |
| 2026-05-07 23:56 | 37.62560 | 25.34197 | 35128 ft | 558 kts | 133° |
| 2026-05-07 23:56 | 37.57399 | 25.41540 | 35129 ft | 559 kts | 133° |
| 2026-05-07 23:57 | 37.52232 | 25.48876 | 35132 ft | 559 kts | 133° |
| 2026-05-07 23:57 | 37.47060 | 25.56203 | 35131 ft | 560 kts | 133° |
| 2026-05-07 23:58 | 37.41909 | 25.63483 | 35132 ft | 560 kts | 133° |
| 2026-05-07 23:58 | 37.36725 | 25.70794 | 35134 ft | 560 kts | 133° |
| 2026-05-07 23:59 | 37.31530 | 25.78104 | 35138 ft | 560 kts | 133° |
| 2026-05-07 23:59 | 37.26339 | 25.85392 | 35136 ft | 560 kts | 133° |
| 2026-05-08 00:00 | 37.21146 | 25.92667 | 35137 ft | 559 kts | 133° |
| 2026-05-08 00:00 | 37.15948 | 25.99932 | 35135 ft | 559 kts | 133° |
| 2026-05-08 00:01 | 37.10790 | 26.07126 | 35137 ft | 558 kts | 133° |
| 2026-05-08 00:01 | 37.05590 | 26.14362 | 35132 ft | 558 kts | 133° |
| 2026-05-08 00:02 | 37.00394 | 26.21580 | 35138 ft | 557 kts | 133° |
| 2026-05-08 00:02 | 36.95504 | 26.29087 | 35141 ft | 557 kts | 125° |
| 2026-05-08 00:03 | 36.91072 | 26.37049 | 35137 ft | 557 kts | 124° |
| 2026-05-08 00:03 | 36.86659 | 26.45023 | 35136 ft | 558 kts | 124° |
| 2026-05-08 00:04 | 36.82208 | 26.52961 | 35136 ft | 558 kts | 124° |
| 2026-05-08 00:04 | 36.77731 | 26.60869 | 35138 ft | 558 kts | 124° |
| 2026-05-08 00:05 | 36.73270 | 26.68722 | 35138 ft | 558 kts | 124° |
| 2026-05-08 00:05 | 36.68778 | 26.76617 | 35144 ft | 558 kts | 124° |
| 2026-05-08 00:06 | 36.64281 | 26.84509 | 35148 ft | 558 kts | 124° |
| 2026-05-08 00:06 | 36.59785 | 26.92383 | 35151 ft | 558 kts | 124° |
| 2026-05-08 00:07 | 36.55309 | 27.00202 | 35148 ft | 558 kts | 124° |
| 2026-05-08 00:07 | 36.50802 | 27.08057 | 35144 ft | 558 kts | 124° |
| 2026-05-08 00:08 | 36.46291 | 27.15900 | 35140 ft | 558 kts | 124° |
| 2026-05-08 00:08 | 36.41771 | 27.23740 | 35136 ft | 558 kts | 124° |
| 2026-05-08 00:09 | 36.37271 | 27.31529 | 35137 ft | 558 kts | 124° |
| 2026-05-08 00:09 | 36.32741 | 27.39352 | 35137 ft | 558 kts | 124° |
| 2026-05-08 00:10 | 36.28199 | 27.47177 | 35137 ft | 558 kts | 124° |
| 2026-05-08 00:10 | 36.23694 | 27.54923 | 35135 ft | 558 kts | 124° |
| 2026-05-08 00:11 | 36.19145 | 27.62724 | 35136 ft | 558 kts | 124° |
| 2026-05-08 00:11 | 36.14599 | 27.70503 | 35145 ft | 557 kts | 124° |
| 2026-05-08 00:12 | 36.10045 | 27.78277 | 35142 ft | 558 kts | 124° |
| 2026-05-08 00:12 | 36.05490 | 27.86037 | 35150 ft | 558 kts | 124° |
| 2026-05-08 00:13 | 36.00927 | 27.93794 | 35146 ft | 558 kts | 124° |
| 2026-05-08 00:13 | 35.96361 | 28.01537 | 35154 ft | 557 kts | 124° |
| 2026-05-08 00:14 | 35.91826 | 28.09209 | 35154 ft | 557 kts | 124° |
| 2026-05-08 00:14 | 35.87254 | 28.16928 | 35146 ft | 557 kts | 124° |
| 2026-05-08 00:15 | 35.82676 | 28.24639 | 35148 ft | 557 kts | 124° |
| 2026-05-08 00:15 | 35.78094 | 28.32341 | 35149 ft | 557 kts | 124° |
| 2026-05-08 00:16 | 35.73508 | 28.40032 | 35152 ft | 557 kts | 124° |
| 2026-05-08 00:16 | 35.68905 | 28.47735 | 35152 ft | 558 kts | 124° |
| 2026-05-08 00:17 | 35.64302 | 28.55421 | 35134 ft | 558 kts | 124° |
| 2026-05-08 00:17 | 35.59721 | 28.63052 | 35149 ft | 558 kts | 124° |
| 2026-05-08 00:18 | 35.55099 | 28.70734 | 35148 ft | 558 kts | 124° |
| 2026-05-08 00:18 | 35.50468 | 28.78415 | 35146 ft | 559 kts | 123° |
| 2026-05-08 00:19 | 35.45835 | 28.86082 | 35135 ft | 559 kts | 123° |
| 2026-05-08 00:19 | 35.41193 | 28.93748 | 35135 ft | 559 kts | 123° |
| 2026-05-08 00:20 | 35.36552 | 29.01395 | 35156 ft | 559 kts | 123° |
| 2026-05-08 00:20 | 35.31903 | 29.09039 | 35139 ft | 559 kts | 123° |
| 2026-05-08 00:21 | 35.27274 | 29.16632 | 35141 ft | 559 kts | 123° |
| 2026-05-08 00:21 | 35.22611 | 29.24266 | 35138 ft | 559 kts | 123° |
| 2026-05-08 00:22 | 35.17951 | 29.31878 | 35141 ft | 559 kts | 123° |
| 2026-05-08 00:22 | 35.13282 | 29.39488 | 35136 ft | 559 kts | 123° |
| 2026-05-08 00:23 | 35.08614 | 29.47080 | 35144 ft | 559 kts | 123° |
| 2026-05-08 00:23 | 35.04724 | 29.53394 | 35141 ft | 559 kts | 123° |
| 2026-05-08 00:24 | 35.00047 | 29.60970 | 35139 ft | 559 kts | 123° |
| 2026-05-08 00:24 | 34.95362 | 29.68545 | 35139 ft | 559 kts | 123° |
| 2026-05-08 00:25 | 34.90697 | 29.76070 | 35140 ft | 559 kts | 123° |
| 2026-05-08 00:25 | 34.86003 | 29.83626 | 35140 ft | 559 kts | 123° |
| 2026-05-08 00:26 | 34.81304 | 29.91177 | 35139 ft | 559 kts | 123° |
| 2026-05-08 00:26 | 34.76599 | 29.98725 | 35138 ft | 559 kts | 123° |
| 2026-05-08 00:27 | 34.72360 | 30.06533 | 35138 ft | 555 kts | 117° |
| 2026-05-08 00:27 | 34.68339 | 30.14558 | 35142 ft | 555 kts | 116° |
| 2026-05-08 00:28 | 34.64313 | 30.22571 | 35141 ft | 556 kts | 116° |
| 2026-05-08 00:28 | 34.60247 | 30.30563 | 35135 ft | 556 kts | 117° |
| 2026-05-08 00:29 | 34.56189 | 30.38486 | 35132 ft | 556 kts | 117° |
| 2026-05-08 00:29 | 34.52085 | 30.46476 | 35138 ft | 556 kts | 117° |
| 2026-05-08 00:30 | 34.48013 | 30.54394 | 35135 ft | 556 kts | 117° |
| 2026-05-08 00:30 | 34.43914 | 30.62351 | 35134 ft | 555 kts | 117° |
| 2026-05-08 00:31 | 34.39810 | 30.70299 | 35126 ft | 555 kts | 117° |
| 2026-05-08 00:31 | 34.35710 | 30.78223 | 35133 ft | 555 kts | 116° |
| 2026-05-08 00:32 | 34.31631 | 30.86086 | 35129 ft | 554 kts | 116° |
| 2026-05-08 00:32 | 34.27512 | 30.94011 | 35127 ft | 554 kts | 116° |
| 2026-05-08 00:33 | 34.23433 | 31.01840 | 35131 ft | 554 kts | 116° |
| 2026-05-08 00:33 | 34.19325 | 31.09709 | 35132 ft | 553 kts | 116° |
| 2026-05-08 00:34 | 34.15213 | 31.17568 | 35133 ft | 553 kts | 116° |
| 2026-05-08 00:34 | 34.11103 | 31.25407 | 35129 ft | 552 kts | 116° |
| 2026-05-08 00:35 | 34.06990 | 31.33231 | 35127 ft | 551 kts | 117° |
| 2026-05-08 00:35 | 34.02878 | 31.41040 | 35124 ft | 550 kts | 117° |
| 2026-05-08 00:36 | 33.98797 | 31.48770 | 35125 ft | 549 kts | 117° |
| 2026-05-08 00:36 | 33.94698 | 31.56520 | 35116 ft | 547 kts | 117° |
| 2026-05-08 00:37 | 33.90606 | 31.64240 | 35120 ft | 546 kts | 117° |
| 2026-05-08 00:38 | 33.84480 | 31.75765 | 35121 ft | 543 kts | 118° |
| 2026-05-08 00:38 | 33.80406 | 31.83410 | 35128 ft | 541 kts | 118° |
| 2026-05-08 00:39 | 33.76343 | 31.91019 | 35111 ft | 540 kts | 118° |
| 2026-05-08 00:39 | 33.72317 | 31.98543 | 35113 ft | 538 kts | 118° |
| 2026-05-08 00:40 | 33.68268 | 32.06093 | 35116 ft | 536 kts | 119° |
| 2026-05-08 00:40 | 33.64232 | 32.13604 | 35113 ft | 534 kts | 119° |
| 2026-05-08 00:41 | 33.60209 | 32.21075 | 35109 ft | 531 kts | 120° |
| 2026-05-08 00:41 | 33.56203 | 32.28500 | 35108 ft | 529 kts | 120° |
| 2026-05-08 00:42 | 33.52232 | 32.35844 | 35101 ft | 527 kts | 120° |
| 2026-05-08 00:42 | 33.48243 | 32.43208 | 35104 ft | 525 kts | 120° |
| 2026-05-08 00:43 | 33.44273 | 32.50522 | 35105 ft | 523 kts | 121° |
| 2026-05-08 00:43 | 33.40312 | 32.57805 | 35105 ft | 521 kts | 121° |
| 2026-05-08 00:44 | 33.36357 | 32.65062 | 35106 ft | 520 kts | 121° |
| 2026-05-08 00:44 | 33.32406 | 32.72297 | 35101 ft | 518 kts | 121° |
| 2026-05-08 00:45 | 33.28481 | 32.79472 | 34715 ft | 523 kts | 122° |
| 2026-05-08 00:45 | 33.26469 | 32.83147 | 33862 ft | 530 kts | 122° |
| 2026-05-08 00:45 | 33.24450 | 32.86830 | 32955 ft | 529 kts | 123° |
| 2026-05-08 00:45 | 33.22432 | 32.90505 | 32068 ft | 528 kts | 123° |
| 2026-05-08 00:46 | 33.20421 | 32.94163 | 31181 ft | 526 kts | 123° |
| 2026-05-08 00:46 | 33.18414 | 32.97810 | 30476 ft | 522 kts | 124° |
| 2026-05-08 00:46 | 33.16430 | 33.01414 | 29845 ft | 514 kts | 124° |
| 2026-05-08 00:46 | 33.14477 | 33.04956 | 29185 ft | 507 kts | 124° |
| 2026-05-08 00:47 | 33.12550 | 33.08448 | 28610 ft | 500 kts | 124° |
| 2026-05-08 00:47 | 33.10646 | 33.11896 | 28043 ft | 494 kts | 124° |
| 2026-05-08 00:47 | 33.08788 | 33.15256 | 27479 ft | 488 kts | 124° |
| 2026-05-08 00:47 | 33.06928 | 33.18618 | 26919 ft | 483 kts | 124° |
| 2026-05-08 00:48 | 33.05086 | 33.21944 | 26374 ft | 478 kts | 124° |
| 2026-05-08 00:48 | 33.03262 | 33.25236 | 25845 ft | 473 kts | 124° |
| 2026-05-08 00:48 | 33.01452 | 33.28498 | 25317 ft | 469 kts | 124° |
| 2026-05-08 00:48 | 32.99659 | 33.31728 | 24790 ft | 465 kts | 124° |
| 2026-05-08 00:49 | 32.97880 | 33.34928 | 24273 ft | 462 kts | 123° |
| 2026-05-08 00:49 | 32.96111 | 33.38109 | 23746 ft | 459 kts | 123° |
| 2026-05-08 00:49 | 32.94350 | 33.41273 | 23151 ft | 456 kts | 123° |
| 2026-05-08 00:49 | 32.92604 | 33.44407 | 22589 ft | 453 kts | 123° |
| 2026-05-08 00:50 | 32.90867 | 33.47523 | 22065 ft | 449 kts | 123° |
| 2026-05-08 00:50 | 32.89146 | 33.50607 | 21558 ft | 445 kts | 123° |
| 2026-05-08 00:50 | 32.87442 | 33.53661 | 21062 ft | 441 kts | 123° |
| 2026-05-08 00:50 | 32.85746 | 33.56696 | 20569 ft | 438 kts | 123° |
| 2026-05-08 00:51 | 32.84063 | 33.59705 | 20070 ft | 435 kts | 123° |
| 2026-05-08 00:51 | 32.82321 | 33.62628 | 19595 ft | 432 kts | 128° |
| 2026-05-08 00:51 | 32.80364 | 33.65278 | 19117 ft | 429 kts | 134° |
| 2026-05-08 00:51 | 32.78284 | 33.67818 | 18637 ft | 426 kts | 134° |
| 2026-05-08 00:52 | 32.76212 | 33.70331 | 18077 ft | 425 kts | 134° |
| 2026-05-08 00:52 | 32.74152 | 33.72838 | 17556 ft | 422 kts | 134° |
| 2026-05-08 00:52 | 32.72117 | 33.75328 | 17041 ft | 419 kts | 134° |
| 2026-05-08 00:52 | 32.70099 | 33.77806 | 16521 ft | 416 kts | 134° |
| 2026-05-08 00:53 | 32.68095 | 33.80273 | 16006 ft | 413 kts | 134° |
| 2026-05-08 00:53 | 32.66107 | 33.82720 | 15519 ft | 410 kts | 134° |
| 2026-05-08 00:53 | 32.64153 | 33.85126 | 15035 ft | 408 kts | 134° |
| 2026-05-08 00:53 | 32.62194 | 33.87537 | 14550 ft | 405 kts | 134° |
| 2026-05-08 00:54 | 32.60245 | 33.89933 | 14066 ft | 402 kts | 134° |
| 2026-05-08 00:54 | 32.58304 | 33.92317 | 13533 ft | 400 kts | 134° |
| 2026-05-08 00:54 | 32.56377 | 33.94680 | 13023 ft | 397 kts | 134° |
| 2026-05-08 00:54 | 32.54481 | 33.97024 | 12716 ft | 390 kts | 134° |
| 2026-05-08 00:55 | 32.52622 | 33.99345 | 12426 ft | 387 kts | 134° |
| 2026-05-08 00:55 | 32.50780 | 34.01649 | 12135 ft | 384 kts | 134° |
| 2026-05-08 00:55 | 32.48931 | 34.03960 | 11842 ft | 389 kts | 134° |
| 2026-05-08 00:55 | 32.47119 | 34.06222 | 11562 ft | 365 kts | 134° |
| 2026-05-08 00:56 | 32.45452 | 34.08298 | 11273 ft | 338 kts | 134° |
| 2026-05-08 00:56 | 32.43892 | 34.10240 | 11026 ft | 314 kts | 134° |
| 2026-05-08 00:56 | 32.42430 | 34.12116 | 10806 ft | 306 kts | 129° |
| 2026-05-08 00:56 | 32.41196 | 34.14141 | 10573 ft | 299 kts | 124° |
| 2026-05-08 00:57 | 32.40072 | 34.16189 | 10382 ft | 296 kts | 123° |
| 2026-05-08 00:57 | 32.38958 | 34.18227 | 10161 ft | 293 kts | 124° |
| 2026-05-08 00:57 | 32.37842 | 34.20240 | 9943 ft | 291 kts | 125° |
| 2026-05-08 00:57 | 32.36725 | 34.22224 | 9710 ft | 289 kts | 125° |
| 2026-05-08 00:58 | 32.35608 | 34.24187 | 9484 ft | 286 kts | 125° |
| 2026-05-08 00:58 | 32.34512 | 34.26101 | 9268 ft | 284 kts | 125° |
| 2026-05-08 00:58 | 32.33410 | 34.28024 | 9055 ft | 281 kts | 125° |
| 2026-05-08 00:58 | 32.32315 | 34.29931 | 8791 ft | 280 kts | 125° |
| 2026-05-08 00:59 | 32.31222 | 34.31829 | 8540 ft | 279 kts | 125° |
| 2026-05-08 00:59 | 32.30128 | 34.33726 | 8284 ft | 279 kts | 125° |
| 2026-05-08 00:59 | 32.29038 | 34.35619 | 8017 ft | 278 kts | 125° |
| 2026-05-08 00:59 | 32.27946 | 34.37513 | 7754 ft | 278 kts | 125° |
| 2026-05-08 01:00 | 32.26857 | 34.39401 | 7497 ft | 278 kts | 125° |
| 2026-05-08 01:00 | 32.25775 | 34.41277 | 7248 ft | 278 kts | 125° |
| 2026-05-08 01:00 | 32.24687 | 34.43162 | 6985 ft | 278 kts | 124° |
| 2026-05-08 01:00 | 32.23607 | 34.45031 | 6704 ft | 273 kts | 124° |
| 2026-05-08 01:01 | 32.22548 | 34.46862 | 6442 ft | 267 kts | 125° |
| 2026-05-08 01:01 | 32.21506 | 34.48658 | 6189 ft | 264 kts | 124° |
| 2026-05-08 01:01 | 32.20468 | 34.50445 | 5930 ft | 264 kts | 124° |
| 2026-05-08 01:01 | 32.19431 | 34.52231 | 5666 ft | 263 kts | 124° |
| 2026-05-08 01:02 | 32.18394 | 34.54015 | 5438 ft | 263 kts | 124° |
| 2026-05-08 01:02 | 32.17390 | 34.55821 | 5196 ft | 263 kts | 121° |
| 2026-05-08 01:02 | 32.16443 | 34.57633 | 4938 ft | 263 kts | 120° |
| 2026-05-08 01:02 | 32.15490 | 34.59483 | 4669 ft | 265 kts | 120° |
| 2026-05-08 01:03 | 32.14531 | 34.61343 | 4398 ft | 266 kts | 119° |
| 2026-05-08 01:03 | 32.13587 | 34.63173 | 4149 ft | 255 kts | 120° |
| 2026-05-08 01:03 | 32.12680 | 34.64926 | 3854 ft | 243 kts | 119° |
| 2026-05-08 01:03 | 32.11814 | 34.66599 | 3594 ft | 234 kts | 119° |
| 2026-05-08 01:04 | 32.10984 | 34.68206 | 3426 ft | 224 kts | 119° |
| 2026-05-08 01:04 | 32.10183 | 34.69755 | 3156 ft | 218 kts | 119° |
| 2026-05-08 01:04 | 32.09406 | 34.71259 | 2922 ft | 211 kts | 118° |
| 2026-05-08 01:04 | 32.08652 | 34.72716 | 2698 ft | 203 kts | 118° |
| 2026-05-08 01:05 | 32.07939 | 34.74093 | 2553 ft | 191 kts | 118° |
| 2026-05-08 01:05 | 32.07258 | 34.75409 | 2332 ft | 183 kts | 118° |
| 2026-05-08 01:05 | 32.06618 | 34.76647 | 2092 ft | 172 kts | 118° |
| 2026-05-08 01:05 | 32.06015 | 34.77810 | 1877 ft | 162 kts | 118° |
| 2026-05-08 01:06 | 32.05440 | 34.78924 | 1648 ft | 160 kts | 118° |
| 2026-05-08 01:06 | 32.04862 | 34.80044 | 1435 ft | 160 kts | 118° |
| 2026-05-08 01:06 | 32.04282 | 34.81161 | 1231 ft | 160 kts | 118° |
| 2026-05-08 01:06 | 32.03707 | 34.82274 | 1008 ft | 157 kts | 119° |
| 2026-05-08 01:07 | 32.03145 | 34.83354 | 778 ft | 153 kts | 120° |
| 2026-05-08 01:07 | 32.02593 | 34.84408 | 565 ft | 149 kts | 119° |
| 2026-05-08 01:07 | 32.02060 | 34.85440 | 376 ft | 147 kts | 123° |
| 2026-05-08 01:07 | 32.01523 | 34.86474 | 217 ft | 148 kts | 121° |
| 2026-05-08 01:08 | 32.00990 | 34.87496 | 123 ft | 138 kts | 120° |
| 2026-05-08 01:08 | 32.00575 | 34.88313 | 123 ft | 94 kts | 121° |
| 2026-05-08 01:08 | 32.00315 | 34.88814 | 122 ft | 58 kts | 121° |
| 2026-05-08 01:08 | 32.00169 | 34.89095 | 120 ft | 12 kts | 121° |
| 2026-05-08 01:09 | 32.00102 | 34.89143 | 119 ft | 12 kts | 171° |
| 2026-05-08 01:09 | 32.00025 | 34.89118 | 120 ft | 10 kts | 211° |
| 2026-05-08 01:09 | 32.00017 | 34.89113 | 120 ft | 0 kts | 211° |
| 2026-05-08 01:11 | 32.00012 | 34.89109 | 119 ft | 5 kts | 211° |
| 2026-05-08 01:11 | 31.99970 | 34.89076 | 120 ft | 8 kts | 225° |
| 2026-05-08 01:11 | 31.99950 | 34.89019 | 120 ft | 8 kts | 258° |
| 2026-05-08 01:11 | 31.99946 | 34.88957 | 124 ft | 8 kts | 275° |
| 2026-05-08 01:12 | 31.99964 | 34.88898 | 121 ft | 8 kts | 297° |
| 2026-05-08 01:12 | 31.99992 | 34.88841 | 121 ft | 9 kts | 301° |
| 2026-05-08 01:12 | 32.00029 | 34.88769 | 120 ft | 11 kts | 301° |
| 2026-05-08 01:12 | 32.00054 | 34.88720 | 122 ft | 11 kts | 301° |
| 2026-05-08 01:13 | 32.00093 | 34.88647 | 120 ft | 11 kts | 301° |
| 2026-05-08 01:13 | 32.00143 | 34.88549 | 120 ft | 11 kts | 301° |
| 2026-05-08 01:13 | 32.00181 | 34.88475 | 121 ft | 11 kts | 302° |
| 2026-05-08 01:13 | 32.00207 | 34.88426 | 120 ft | 10 kts | 302° |
| 2026-05-08 01:14 | 32.00241 | 34.88362 | 120 ft | 9 kts | 302° |
| 2026-05-08 01:14 | 32.00249 | 34.88298 | 120 ft | 8 kts | 246° |
| 2026-05-08 01:14 | 32.00221 | 34.88266 | 120 ft | 6 kts | 217° |
| 2026-05-08 01:14 | 32.00196 | 34.88238 | 121 ft | 5 kts | 239° |
| 2026-05-08 01:15 | 32.00212 | 34.88202 | 120 ft | 6 kts | 313° |
| 2026-05-08 01:15 | 32.00234 | 34.88167 | 120 ft | 3 kts | 304° |
| 2026-05-08 01:15 | 32.00239 | 34.88158 | 120 ft | 0 kts | 302° |